Time;durP1;ratioP1;P1;durP2;ratioP2;P2;SDS_P1;SDS_P2;PMS_P1;PMS_P2;Temp;Humidity;BMP_temperature;BMP_pressure;BME280_temperature;BME280_humidity;BME280_pressure;Samples;Min_cycle;Max_cycle;Signal;HPM_P1;HPM_P2
2021/12/29 00:00:38;;;;;;;29.23;8.18;;;;;;;-9.15;73.61;100341.34;4915261;29;20055;-58
2021/12/29 00:03:05;;;;;;;25.58;8.30;;;;;;;-9.14;73.37;100347.59;4914349;29;20044;-62
2021/12/29 00:05:32;;;;;;;26.75;8.45;;;;;;;-9.16;73.78;100347.78;4915292;29;20495;-60
2021/12/29 00:07:59;;;;;;;27.92;9.38;;;;;;;-9.20;73.54;100354.56;4915360;29;20052;-63
2021/12/29 00:10:27;;;;;;;28.17;9.05;;;;;;;-9.18;73.67;100354.38;4918076;29;20546;-60
2021/12/29 00:12:55;;;;;;;27.52;9.57;;;;;;;-9.19;74.37;100348.16;4919181;29;20056;-61
2021/12/29 00:15:27;;;;;;;26.08;7.97;;;;;;;-9.19;73.41;100356.22;4919229;29;20131;-62
2021/12/29 00:17:56;;;;;;;28.92;8.57;;;;;;;-9.23;73.08;100354.09;4918374;29;20083;-62
2021/12/29 00:20:28;;;;;;;25.00;9.27;;;;;;;-9.25;73.61;100348.06;4918897;29;20134;-62
2021/12/29 00:23:01;;;;;;;44.85;9.73;;;;;;;-9.27;73.57;100348.25;4919070;29;20070;-61
2021/12/29 00:25:28;;;;;;;32.42;8.90;;;;;;;-9.30;73.52;100343.22;4901746;29;20143;-64
2021/12/29 00:27:55;;;;;;;33.95;9.15;;;;;;;-9.33;72.93;100337.41;4918681;29;20044;-62
2021/12/29 00:30:23;;;;;;;26.98;8.82;;;;;;;-9.33;72.92;100343.59;4918767;29;20545;-63
2021/12/29 00:32:50;;;;;;;32.58;9.60;;;;;;;-9.38;72.85;100339.81;4918534;29;20055;-62
2021/12/29 00:35:18;;;;;;;25.10;8.93;;;;;;;-9.39;73.16;100348.91;4918942;29;20153;-63
2021/12/29 00:37:45;;;;;;;31.10;10.23;;;;;;;-9.42;73.20;100343.91;4918598;29;20044;-61
2021/12/29 00:40:12;;;;;;;42.17;11.00;;;;;;;-9.43;73.58;100343.06;4918901;29;20515;-62
2021/12/29 00:42:40;;;;;;;32.42;10.02;;;;;;;-9.46;73.59;100334.50;4918255;29;20052;-63
2021/12/29 00:45:07;;;;;;;37.42;11.18;;;;;;;-9.47;73.24;100346.31;4924035;29;20056;-62
2021/12/29 00:47:36;;;;;;;36.35;11.82;;;;;;;-9.49;72.83;100340.25;4914255;29;20107;-62
2021/12/29 00:50:08;;;;;;;41.58;11.02;;;;;;;-9.50;72.62;100346.66;4918837;29;20044;-59
2021/12/29 00:52:35;;;;;;;29.65;11.55;;;;;;;-9.50;73.03;100335.91;4918344;29;20062;-62
2021/12/29 00:55:03;;;;;;;39.45;11.35;;;;;;;-9.50;73.03;100341.28;4917028;29;20052;-62
2021/12/29 00:57:29;;;;;;;30.15;9.82;;;;;;;-9.52;72.86;100337.94;4908789;29;20059;-62
2021/12/29 00:59:56;;;;;;;34.28;11.05;;;;;;;-9.51;72.75;100334.25;4918299;29;20562;-63
2021/12/29 01:02:23;;;;;;;27.25;9.55;;;;;;;-9.53;72.98;100336.28;4917692;29;20044;-62
2021/12/29 01:04:50;;;;;;;38.42;11.80;;;;;;;-9.55;72.50;100336.47;4917979;29;20151;-61
2021/12/29 01:07:18;;;;;;;28.50;9.93;;;;;;;-9.56;72.99;100337.47;4917890;29;20103;-61
2021/12/29 01:09:45;;;;;;;32.65;9.05;;;;;;;-9.61;72.80;100348.81;4917862;29;20060;-61
2021/12/29 01:12:12;;;;;;;34.03;9.52;;;;;;;-9.62;73.08;100354.38;4918362;29;20051;-63
2021/12/29 01:14:43;;;;;;;25.10;8.05;;;;;;;-9.64;72.82;100368.03;4917528;29;20059;-60
2021/12/29 01:17:10;;;;;;;42.65;11.70;;;;;;;-9.67;72.80;100356.78;4916948;29;20436;-62
2021/12/29 01:19:37;;;;;;;29.30;8.52;;;;;;;-9.69;72.88;100350.72;4917275;29;20060;-62
2021/12/29 01:22:04;;;;;;;32.65;8.18;;;;;;;-9.76;72.76;100347.09;4917648;29;20131;-61
2021/12/29 01:24:31;;;;;;;28.52;10.18;;;;;;;-9.79;72.78;100352.84;4917144;29;20440;-62
2021/12/29 01:26:59;;;;;;;38.72;8.98;;;;;;;-9.76;72.98;100353.34;4918130;29;20052;-61
2021/12/29 01:29:28;;;;;;;30.23;9.20;;;;;;;-9.75;73.44;100346.91;4917174;29;20152;-61
2021/12/29 01:31:57;;;;;;;29.02;8.73;;;;;;;-9.76;73.12;100339.03;4917504;29;20052;-61
2021/12/29 01:34:24;;;;;;;32.30;10.13;;;;;;;-9.80;72.92;100340.44;4917164;29;20060;-63
2021/12/29 01:36:52;;;;;;;27.48;10.13;;;;;;;-9.79;72.83;100342.09;4900658;29;20047;-62
2021/12/29 01:39:19;;;;;;;22.88;8.70;;;;;;;-9.84;72.97;100339.94;4917079;29;20070;-62
2021/12/29 01:41:50;;;;;;;24.77;7.82;;;;;;;-9.86;73.09;100351.94;4917971;29;20500;-62
2021/12/29 01:44:18;;;;;;;28.40;7.88;;;;;;;-9.91;72.93;100344.41;4916989;29;20106;-62
2021/12/29 01:46:45;;;;;;;21.23;7.20;;;;;;;-9.99;73.10;100347.16;4914387;29;20092;-60
2021/12/29 01:49:13;;;;;;;33.78;8.30;;;;;;;-10.04;73.02;100343.34;4912537;29;20539;-62
2021/12/29 01:52:00;;;;;;;26.52;8.40;;;;;;;-10.00;73.17;100341.97;4916712;29;20253;-62
2021/12/29 01:54:28;;;;;;;32.63;8.52;;;;;;;-9.99;73.11;100332.84;4916857;29;20048;-62
2021/12/29 01:56:58;;;;;;;33.05;9.23;;;;;;;-9.96;73.02;100344.09;4917663;29;20071;-62
2021/12/29 01:59:27;;;;;;;18.50;6.77;;;;;;;-9.98;72.74;100343.44;4916768;29;20062;-63
2021/12/29 02:01:55;;;;;;;31.77;8.38;;;;;;;-10.05;73.42;100341.66;4916982;29;20327;-61
2021/12/29 02:04:22;;;;;;;32.38;9.20;;;;;;;-10.01;73.58;100343.81;4916690;29;20139;-62
2021/12/29 02:06:50;;;;;;;26.35;8.40;;;;;;;-9.97;73.33;100339.75;4917216;29;20457;-61
2021/12/29 02:09:17;;;;;;;22.33;7.43;;;;;;;-9.94;73.78;100342.06;4916509;29;20056;-63
2021/12/29 02:11:45;;;;;;;18.83;7.53;;;;;;;-9.93;72.94;100341.03;4913643;29;20060;-63
2021/12/29 02:14:12;;;;;;;35.17;9.77;;;;;;;-9.90;73.26;100339.84;4916601;29;20135;-61
2021/12/29 02:16:39;;;;;;;25.70;8.85;;;;;;;-9.91;72.87;100340.88;4916077;29;20491;-62
2021/12/29 02:19:10;;;;;;;25.00;7.57;;;;;;;-9.86;73.07;100343.84;4916762;29;20063;-63
2021/12/29 02:21:38;;;;;;;21.20;6.30;;;;;;;-9.84;73.19;100339.09;4915800;29;20056;-63
2021/12/29 02:26:38;;;;;;;23.33;7.07;;;;;;;-9.83;73.21;100347.00;4917005;29;20531;-62
2021/12/29 02:29:08;;;;;;;25.98;7.90;;;;;;;-9.82;73.38;100348.69;4889030;29;20063;-62
2021/12/29 02:31:36;;;;;;;23.13;8.15;;;;;;;-9.76;73.10;100350.66;4916179;29;20056;-61
2021/12/29 02:34:05;;;;;;;22.40;7.78;;;;;;;-9.71;73.28;100345.53;4909759;29;20048;-62
2021/12/29 02:36:32;;;;;;;20.75;7.57;;;;;;;-9.66;72.97;100345.81;4916480;29;20519;-63
2021/12/29 02:39:01;;;;;;;21.88;6.90;;;;;;;-9.60;73.76;100339.69;4915469;29;20048;-62
2021/12/29 02:41:30;;;;;;;19.90;6.85;;;;;;;-9.53;73.36;100344.34;4916247;29;20055;-58
2021/12/29 02:44:01;;;;;;;21.13;7.38;;;;;;;-9.56;72.68;100354.44;4916583;29;20071;-58
2021/12/29 02:46:31;;;;;;;23.38;7.30;;;;;;;-9.62;73.42;100347.13;4915831;29;20062;-60
2021/12/29 02:48:59;;;;;;;15.07;5.65;;;;;;;-9.71;73.52;100345.53;4916365;29;20595;-60
2021/12/29 02:51:27;;;;;;;19.38;6.00;;;;;;;-9.74;73.73;100337.00;4916418;29;20180;-59
2021/12/29 02:53:54;;;;;;;22.00;7.50;;;;;;;-9.63;74.04;100332.00;4916077;29;20142;-61
2021/12/29 02:56:26;;;;;;;23.65;6.45;;;;;;;-9.56;73.27;100338.31;4915758;29;21606;-61
2021/12/29 02:58:54;;;;;;;19.98;7.38;;;;;;;-9.71;74.26;100339.34;4916158;29;20087;-62
2021/12/29 03:01:21;;;;;;;23.73;7.13;;;;;;;-9.70;73.74;100344.53;4915849;29;20530;-60
2021/12/29 03:03:48;;;;;;;17.98;6.68;;;;;;;-9.63;73.37;100337.38;4915953;29;20068;-62
2021/12/29 03:06:15;;;;;;;23.98;8.15;;;;;;;-9.67;73.84;100335.25;4916061;29;20059;-60
2021/12/29 03:08:43;;;;;;;22.00;7.38;;;;;;;-9.62;74.01;100343.59;4915715;29;20052;-61
2021/12/29 03:11:10;;;;;;;23.55;7.47;;;;;;;-9.55;73.91;100328.38;4915780;29;20052;-61
2021/12/29 03:13:39;;;;;;;21.73;8.52;;;;;;;-9.48;73.99;100333.88;4906966;29;20060;-61
2021/12/29 03:16:07;;;;;;;21.83;7.88;;;;;;;-9.44;74.05;100329.78;4911225;29;20104;-61
2021/12/29 03:18:35;;;;;;;19.00;6.85;;;;;;;-9.36;73.50;100327.00;4914507;29;20571;-61
2021/12/29 03:21:03;;;;;;;25.83;7.38;;;;;;;-9.40;73.51;100321.13;4914670;29;20048;-61
2021/12/29 03:23:31;;;;;;;23.67;7.63;;;;;;;-9.40;73.24;100329.22;4915524;29;20485;-61
2021/12/29 03:25:58;;;;;;;28.98;9.27;;;;;;;-9.38;73.79;100318.25;4916073;29;20500;-62
2021/12/29 03:28:25;;;;;;;20.63;7.22;;;;;;;-9.33;73.85;100319.34;4915164;29;20044;-63
2021/12/29 03:30:54;;;;;;;26.35;8.32;;;;;;;-9.32;73.29;100315.66;4916037;29;20055;-62
2021/12/29 03:33:24;;;;;;;28.05;9.52;;;;;;;-9.23;73.60;100319.09;4915095;29;20111;-61
2021/12/29 03:35:59;;;;;;;23.48;8.15;;;;;;;-9.22;72.89;100328.81;4915989;29;20056;-62
2021/12/29 03:38:26;;;;;;;29.75;10.00;;;;;;;-9.37;73.60;100319.91;4915079;29;20056;-62
2021/12/29 03:40:55;;;;;;;24.70;9.60;;;;;;;-9.32;74.12;100312.13;4915986;29;20056;-62
2021/12/29 03:43:24;;;;;;;28.20;8.60;;;;;;;-9.20;73.91;100324.94;4915661;29;20064;-61
2021/12/29 03:45:51;;;;;;;28.77;9.00;;;;;;;-9.09;74.15;100318.25;4918853;29;20063;-61
2021/12/29 03:48:21;;;;;;;23.30;8.88;;;;;;;-9.03;73.71;100312.09;4917697;29;20052;-62
2021/12/29 03:50:48;;;;;;;24.75;8.57;;;;;;;-9.00;73.43;100311.72;4919596;29;20062;-62
2021/12/29 03:53:16;;;;;;;35.70;10.93;;;;;;;-9.06;73.86;100323.25;4919466;29;20052;-62
2021/12/29 03:55:44;;;;;;;35.35;11.18;;;;;;;-8.99;73.75;100326.84;4918691;29;20052;-62
2021/12/29 03:58:12;;;;;;;32.55;9.07;;;;;;;-8.97;73.62;100322.97;4919214;29;20052;-61
2021/12/29 04:00:38;;;;;;;38.30;9.43;;;;;;;-8.94;73.97;100321.75;4919225;29;20058;-62
2021/12/29 04:03:06;;;;;;;39.33;10.23;;;;;;;-8.94;73.37;100333.38;4919228;29;20059;-62
2021/12/29 04:05:33;;;;;;;29.50;9.55;;;;;;;-8.96;73.91;100334.56;4919162;29;20062;-62
2021/12/29 04:08:02;;;;;;;31.58;9.40;;;;;;;-8.99;74.05;100313.38;4918566;29;20140;-61
2021/12/29 04:10:29;;;;;;;28.33;9.57;;;;;;;-8.99;73.70;100313.38;4919045;29;20511;-62
2021/12/29 04:12:57;;;;;;;27.45;9.73;;;;;;;-8.98;73.13;100304.28;4919067;29;20048;-62
2021/12/29 04:15:25;;;;;;;29.33;7.30;;;;;;;-8.99;73.82;100297.22;4919160;29;20048;-62
2021/12/29 04:17:57;;;;;;;39.13;9.05;;;;;;;-8.96;74.06;100296.84;4919433;29;20086;-61
2021/12/29 04:23:19;;;;;;;28.10;9.77;;;;;;;-9.17;73.86;100304.88;4918695;29;20132;-62
2021/12/29 04:25:49;;;;;;;34.03;9.25;;;;;;;-9.26;74.19;100304.16;4919000;29;20053;-63
2021/12/29 04:28:20;;;;;;;;;;;;;;;-9.34;73.76;100292.63;4918643;29;20520;-62
2021/12/29 04:30:47;;;;;;;;;;;;;;;-9.41;74.44;100289.00;4917915;29;19927;-63
2021/12/29 04:33:15;;;;;;;29.70;9.00;;;;;;;-9.46;73.96;100284.19;4915627;29;19930;-62
2021/12/29 04:35:43;;;;;;;29.83;10.27;;;;;;;-9.45;74.25;100283.16;4919147;29;20054;-66
2021/12/29 04:38:10;;;;;;;27.70;9.48;;;;;;;-9.44;74.35;100284.00;4918277;29;20052;-66
2021/12/29 04:40:38;;;;;;;31.85;9.98;;;;;;;-9.49;73.64;100291.78;4917122;29;20064;-67
2021/12/29 04:43:05;;;;;;;25.10;8.95;;;;;;;-9.45;73.81;100293.91;4917051;29;20056;-66
2021/12/29 04:45:34;;;;;;;33.95;10.88;;;;;;;-9.46;74.03;100284.19;4918604;29;20048;-66
2021/12/29 04:48:01;;;;;;;37.70;11.57;;;;;;;-9.37;73.61;100287.59;4918135;29;20080;-66
2021/12/29 04:50:37;;;;;;;28.83;9.13;;;;;;;-9.32;73.90;100290.56;4917834;29;20556;-67
2021/12/29 04:53:07;;;;;;;28.95;10.32;;;;;;;-9.28;73.29;100297.25;4918049;29;20048;-66
2021/12/29 04:55:34;;;;;;;25.75;8.00;;;;;;;-9.21;73.91;100292.81;4918115;29;20056;-59
2021/12/29 04:58:02;;;;;;;22.77;8.65;;;;;;;-9.13;73.26;100290.81;4918385;29;20052;-60
2021/12/29 05:00:31;;;;;;;23.90;9.30;;;;;;;-9.06;73.52;100289.03;4918537;29;20056;-57
2021/12/29 05:02:58;;;;;;;24.88;8.38;;;;;;;-9.02;73.74;100286.81;4918317;29;20147;-60
2021/12/29 05:05:41;;;;;;;19.92;7.50;;;;;;;-9.02;73.44;100292.19;4908598;29;20100;-60
2021/12/29 05:08:28;;;;;;;31.42;8.05;;;;;;;-8.97;73.43;100300.56;4914931;29;20051;-60
2021/12/29 05:11:07;;;;;;;32.88;8.38;;;;;;;-8.91;73.90;100291.72;4916834;29;20080;-59
2021/12/29 05:13:37;;;;;;;25.23;8.90;;;;;;;-8.92;72.91;100292.75;4917503;29;20059;-58
2021/12/29 05:16:05;;;;;;;37.10;8.65;;;;;;;-8.88;73.46;100288.66;4917890;29;20512;-58
2021/12/29 05:18:34;;;;;;;27.88;8.38;;;;;;;-8.89;73.07;100292.38;4917297;29;20567;-62
2021/12/29 05:21:04;;;;;;;32.50;9.80;;;;;;;-8.97;73.26;100287.09;4917901;29;20131;-58
2021/12/29 05:23:31;;;;;;;32.47;9.95;;;;;;;-9.01;73.65;100294.72;4917319;29;20079;-61
2021/12/29 05:25:58;;;;;;;26.15;9.68;;;;;;;-9.01;73.94;100288.47;4917560;29;20088;-60
2021/12/29 05:28:25;;;;;;;40.10;9.93;;;;;;;-9.07;74.03;100281.16;4915228;29;20048;-60
2021/12/29 05:30:52;;;;;;;33.67;9.10;;;;;;;-9.14;73.52;100277.53;4905251;29;20500;-58
2021/12/29 05:33:20;;;;;;;38.55;9.55;;;;;;;-9.23;73.26;100281.38;4910707;29;20079;-61
2021/12/29 05:35:47;;;;;;;29.35;9.80;;;;;;;-9.31;73.65;100287.69;4913105;29;20104;-61
2021/12/29 05:38:14;;;;;;;34.58;9.00;;;;;;;-9.30;74.52;100288.53;4916741;29;20052;-61
2021/12/29 05:40:41;;;;;;;29.83;10.68;;;;;;;-9.29;73.73;100280.28;4911034;29;20055;-60
2021/12/29 05:43:07;;;;;;;40.92;12.50;;;;;;;-9.31;73.69;100276.06;4914798;29;20520;-61
2021/12/29 05:45:35;;;;;;;46.15;11.07;;;;;;;-9.33;73.95;100284.34;4916107;29;20048;-58
2021/12/29 05:48:02;;;;;;;34.35;10.18;;;;;;;-9.34;74.54;100288.06;4916519;29;20542;-61
2021/12/29 05:50:30;;;;;;;42.83;12.43;;;;;;;-9.36;74.71;100286.59;4915662;29;20792;-60
2021/12/29 05:52:59;;;;;;;47.33;11.85;;;;;;;-9.36;74.02;100292.00;4910228;29;20567;-61
2021/12/29 05:55:27;;;;;;;33.97;10.57;;;;;;;-9.33;73.48;100294.31;4916213;29;20492;-60
2021/12/29 05:57:55;;;;;;;37.88;10.80;;;;;;;-9.29;73.73;100298.28;4915140;29;20095;-57
2021/12/29 06:00:23;;;;;;;46.05;12.35;;;;;;;-9.21;74.07;100303.56;4916310;29;20111;-61
2021/12/29 06:02:51;;;;;;;55.63;13.80;;;;;;;-9.18;73.36;100301.31;4915808;29;20087;-61
2021/12/29 06:05:19;;;;;;;45.90;12.63;;;;;;;-9.17;72.87;100304.88;4916593;29;20080;-61
2021/12/29 06:07:46;;;;;;;39.53;10.88;;;;;;;-9.22;73.76;100307.28;4916098;29;20094;-61
2021/12/29 06:10:13;;;;;;;41.40;11.77;;;;;;;-9.28;73.02;100291.88;4915015;29;20044;-61
2021/12/29 06:12:40;;;;;;;40.30;12.70;;;;;;;-9.23;73.01;100298.38;4916498;29;20059;-60
2021/12/29 06:15:09;;;;;;;44.22;12.65;;;;;;;-9.22;73.04;100286.56;4915846;29;20504;-59
2021/12/29 06:17:36;;;;;;;46.90;13.43;;;;;;;-9.19;72.90;100296.97;4913571;29;20082;-59
2021/12/29 06:20:05;;;;;;;44.67;12.60;;;;;;;-9.19;72.57;100302.34;4915928;29;20063;-63
2021/12/29 06:22:32;;;;;;;44.45;11.63;;;;;;;-9.15;73.05;100302.81;4914098;29;20044;-61
2021/12/29 06:24:59;;;;;;;38.70;11.93;;;;;;;-9.08;73.11;100296.50;4914427;29;20070;-60
2021/12/29 06:27:26;;;;;;;45.35;12.30;;;;;;;-9.07;72.60;100289.22;4916109;29;20048;-60
2021/12/29 06:29:53;;;;;;;53.60;13.27;;;;;;;-8.99;72.62;100294.50;4915816;29;20138;-59
2021/12/29 06:32:20;;;;;;;44.55;11.52;;;;;;;-8.95;73.27;100298.53;4914544;29;20062;-60
2021/12/29 06:34:47;;;;;;;55.85;12.93;;;;;;;-8.92;72.66;100292.75;4915635;29;20062;-61
2021/12/29 06:37:15;;;;;;;48.55;13.00;;;;;;;-8.87;72.80;100301.09;4914398;29;20151;-61
2021/12/29 06:39:44;;;;;;;42.67;12.05;;;;;;;-8.86;73.17;100306.28;4910910;29;20578;-61
2021/12/29 06:42:12;;;;;;;38.15;11.60;;;;;;;-8.80;72.48;100313.63;4914500;29;20075;-60
2021/12/29 06:44:39;;;;;;;47.33;12.75;;;;;;;-8.73;73.35;100308.31;4915435;29;20068;-58
2021/12/29 06:47:07;;;;;;;54.05;15.25;;;;;;;-8.74;72.75;100309.34;4914580;29;20062;-61
2021/12/29 06:49:35;;;;;;;47.67;13.55;;;;;;;-8.77;72.12;100312.41;4914964;29;20052;-59
2021/12/29 06:52:04;;;;;;;51.13;14.80;;;;;;;-8.80;72.51;100307.41;4914857;29;20052;-57
2021/12/29 06:54:32;;;;;;;68.15;19.95;;;;;;;-8.78;71.94;100300.78;4915265;29;20411;-62
2021/12/29 06:57:00;;;;;;;59.30;13.77;;;;;;;-8.78;72.47;100302.63;4915075;29;20079;-61
2021/12/29 06:59:27;;;;;;;60.60;17.58;;;;;;;-8.81;72.47;100300.31;4916022;29;20151;-59
2021/12/29 07:01:54;;;;;;;66.15;16.38;;;;;;;-8.81;71.90;100297.63;4915675;29;20055;-59
2021/12/29 07:04:23;;;;;;;58.65;16.00;;;;;;;-8.78;72.47;100299.94;4915560;29;20060;-62
2021/12/29 07:06:51;;;;;;;55.55;14.85;;;;;;;-8.87;72.90;100306.47;4914312;29;20491;-61
2021/12/29 07:09:18;;;;;;;66.55;14.85;;;;;;;-8.94;72.97;100305.56;4914201;29;20492;-60
2021/12/29 07:11:46;;;;;;;109.90;26.73;;;;;;;-8.97;72.53;100311.34;4914498;29;20052;-59
2021/12/29 07:14:13;;;;;;;66.18;19.77;;;;;;;-9.00;72.87;100306.34;4914223;29;20048;-55
2021/12/29 07:16:44;;;;;;;57.83;15.07;;;;;;;-9.11;72.43;100306.81;4915851;29;20048;-60
2021/12/29 07:19:11;;;;;;;49.25;13.63;;;;;;;-9.13;72.99;100312.38;4912872;29;20539;-58
2021/12/29 07:21:38;;;;;;;54.83;13.18;;;;;;;-9.09;72.91;100307.47;4913556;29;20060;-59
2021/12/29 07:24:07;;;;;;;49.45;13.73;;;;;;;-9.04;72.09;100310.41;4913834;29;20479;-59
2021/12/29 07:26:34;;;;;;;53.58;14.55;;;;;;;-9.04;72.47;100310.41;4905792;29;20055;-57
2021/12/29 07:29:02;;;;;;;44.20;13.35;;;;;;;-8.98;72.60;100304.28;4913608;29;20615;-57
2021/12/29 07:31:31;;;;;;;48.40;13.93;;;;;;;-8.91;71.90;100302.50;4915564;29;20063;-57
2021/12/29 07:34:17;;;;;;;47.10;13.20;;;;;;;-8.89;72.00;100290.50;4915335;29;20048;-59
2021/12/29 07:36:44;;;;;;;54.25;13.30;;;;;;;-8.83;71.90;100292.44;4916059;29;20059;-56
2021/12/29 07:39:14;;;;;;;46.17;13.43;;;;;;;-8.78;71.39;100289.16;4915142;29;20040;-56
2021/12/29 07:41:42;;;;;;;41.10;13.18;;;;;;;-8.81;71.27;100289.53;4915515;29;20056;-57
2021/12/29 07:44:12;;;;;;;46.65;13.07;;;;;;;-8.86;71.58;100294.69;4915510;29;20056;-59
2021/12/29 07:46:41;;;;;;;44.45;14.50;;;;;;;-8.92;71.61;100281.97;4915544;29;20059;-57
2021/12/29 07:49:08;;;;;;;48.13;13.10;;;;;;;-8.89;71.72;100281.59;4913750;29;20056;-60
2021/12/29 07:51:35;;;;;;;59.67;15.07;;;;;;;-8.77;72.01;100280.88;4915802;29;20048;-57
2021/12/29 07:54:03;;;;;;;54.38;14.40;;;;;;;-8.68;71.13;100285.13;4915496;29;20397;-56
2021/12/29 07:56:30;;;;;;;62.97;15.43;;;;;;;-8.70;72.17;100275.56;4915478;29;20057;-57
2021/12/29 07:58:57;;;;;;;52.85;14.98;;;;;;;-8.71;71.79;100279.31;4915040;29;20052;-61
2021/12/29 08:01:24;;;;;;;51.15;12.65;;;;;;;-8.67;71.37;100280.56;4915542;29;20052;-59
2021/12/29 08:03:52;;;;;;;59.95;13.18;;;;;;;-8.64;70.76;100280.19;4914766;29;20371;-59
2021/12/29 08:06:20;;;;;;;46.30;12.45;;;;;;;-8.58;71.91;100269.50;4915248;29;20066;-59
2021/12/29 08:08:46;;;;;;;42.15;14.25;;;;;;;-8.50;70.48;100260.44;4914777;29;20047;-58
2021/12/29 08:11:14;;;;;;;47.05;14.27;;;;;;;-8.54;70.61;100264.53;4911732;29;20090;-60
2021/12/29 08:13:41;;;;;;;47.80;15.23;;;;;;;-8.48;71.06;100261.06;4915411;29;20131;-59
2021/12/29 08:16:08;;;;;;;44.30;14.13;;;;;;;-8.53;70.82;100261.63;4915431;29;20415;-59
2021/12/29 08:18:34;;;;;;;54.22;14.88;;;;;;;-8.61;70.90;100263.63;4915292;29;20052;-58
2021/12/29 08:21:01;;;;;;;57.13;17.25;;;;;;;-8.61;70.64;100258.25;4914936;29;20052;-61
2021/12/29 08:23:28;;;;;;;43.35;14.77;;;;;;;-8.70;70.35;100257.53;4915009;29;20092;-61
2021/12/29 08:25:55;;;;;;;65.60;16.25;;;;;;;-8.60;70.73;100249.13;4915256;29;20048;-59
2021/12/29 08:28:22;;;;;;;53.05;16.02;;;;;;;-8.22;69.67;100253.19;4915429;29;20066;-58
2021/12/29 08:30:51;;;;;;;47.15;14.57;;;;;;;-7.48;68.42;100243.50;4916290;29;20059;-58
2021/12/29 08:33:19;;;;;;;59.78;18.52;;;;;;;-6.82;67.46;100237.28;4918392;29;20147;-58
2021/12/29 08:35:46;;;;;;;48.95;15.82;;;;;;;-6.27;66.05;100229.69;4918317;29;20083;-59
2021/12/29 08:38:14;;;;;;;46.20;14.65;;;;;;;-6.09;66.01;100229.91;4918465;29;20590;-60
2021/12/29 08:40:41;;;;;;;49.30;15.55;;;;;;;-6.16;66.57;100231.75;4918039;29;20083;-59
2021/12/29 08:43:08;;;;;;;56.72;17.42;;;;;;;-6.20;67.05;100230.53;4918356;29;20482;-56
2021/12/29 08:45:37;;;;;;;53.90;14.40;;;;;;;-6.20;67.92;100232.38;4916656;29;20151;-56
2021/12/29 08:48:05;;;;;;;55.22;15.32;;;;;;;-6.33;67.54;100227.84;4906419;29;20104;-60
2021/12/29 08:50:32;;;;;;;50.35;15.07;;;;;;;-6.48;67.82;100224.47;4917730;29;20040;-60
2021/12/29 08:53:02;;;;;;;61.05;16.95;;;;;;;-6.66;68.27;100224.22;4918008;29;20584;-60
2021/12/29 08:55:31;;;;;;;67.28;17.48;;;;;;;-6.87;67.12;100231.69;4917815;29;20056;-57
2021/12/29 08:57:59;;;;;;;55.72;16.38;;;;;;;-6.94;67.49;100218.16;4917908;29;20511;-58
2021/12/29 09:00:26;;;;;;;58.85;15.55;;;;;;;-6.95;66.96;100230.00;4917930;29;20056;-58
2021/12/29 09:02:53;;;;;;;44.63;16.20;;;;;;;-6.78;67.63;100212.34;4917803;29;20048;-58
2021/12/29 09:05:20;;;;;;;45.75;14.68;;;;;;;-6.42;66.33;100215.53;4918042;29;20530;-59
2021/12/29 09:07:48;;;;;;;50.05;14.80;;;;;;;-5.97;65.88;100221.97;4916366;29;20040;-59
2021/12/29 09:10:18;;;;;;;42.78;16.00;;;;;;;-5.91;64.88;100211.16;4915478;29;20135;-60
2021/12/29 09:12:51;;;;;;;44.70;15.63;;;;;;;-5.98;65.99;100199.47;4910188;29;20514;-59
2021/12/29 09:15:23;;;;;;;46.08;16.30;;;;;;;-6.09;66.15;100208.25;4916816;29;20601;-57
2021/12/29 09:17:50;;;;;;;52.22;14.82;;;;;;;-6.31;65.91;100208.69;4914959;29;20138;-57
2021/12/29 09:20:27;;;;;;;51.60;19.52;;;;;;;-6.49;65.87;100197.59;4911585;29;20088;-60
2021/12/29 09:22:59;;;;;;;52.67;17.98;;;;;;;-6.44;66.18;100198.66;4915249;29;20498;-59
2021/12/29 09:25:27;;;;;;;45.72;16.88;;;;;;;-6.74;66.39;100194.69;4912238;29;20116;-58
2021/12/29 09:27:54;;;;;;;39.42;16.33;;;;;;;-6.71;65.74;100196.97;4912438;29;20420;-60
2021/12/29 09:30:24;;;;;;;60.33;18.45;;;;;;;-6.74;66.41;100194.69;4915774;29;20411;-54
2021/12/29 09:32:52;;;;;;;;;;;;;;;-6.87;65.85;100180.31;4912610;29;20048;-59
2021/12/29 09:35:20;;;;;;;55.85;19.05;;;;;;;-6.92;66.40;100191.75;4916975;29;19973;-59
2021/12/29 09:37:48;;;;;;;46.33;15.40;;;;;;;-7.12;66.26;100195.41;4915172;29;20534;-59
2021/12/29 09:40:17;;;;;;;45.50;16.63;;;;;;;-7.29;65.41;100186.84;4912894;29;20059;-62
2021/12/29 09:42:44;;;;;;;46.55;15.43;;;;;;;-7.52;67.16;100185.50;4911334;29;20056;-52
2021/12/29 09:45:12;;;;;;;51.60;14.43;;;;;;;-7.52;66.13;100183.66;4915550;29;20083;-60
2021/12/29 09:47:39;;;;;;;48.38;13.75;;;;;;;-7.47;66.48;100199.25;4915152;29;20051;-58
2021/12/29 09:50:17;;;;;;;35.15;14.20;;;;;;;-7.54;66.94;100177.59;4916347;29;20082;-58
2021/12/29 09:52:44;;;;;;;31.65;11.73;;;;;;;-7.67;65.78;100172.16;4911708;29;20058;-57
2021/12/29 09:55:14;;;;;;;40.17;13.85;;;;;;;-7.87;67.23;100187.41;4913259;29;20075;-58
2021/12/29 09:57:45;;;;;;;31.55;10.23;;;;;;;-8.04;67.38;100169.84;4914695;29;20130;-59
2021/12/29 10:00:21;;;;;;;42.47;12.80;;;;;;;-8.23;66.90;100165.22;4900238;29;20051;-58
2021/12/29 10:02:49;;;;;;;37.20;13.27;;;;;;;-8.35;67.30;100161.38;4903439;29;20369;-58
2021/12/29 10:05:16;;;;;;;34.50;11.85;;;;;;;-8.46;66.63;100156.53;4908816;29;20055;-56
2021/12/29 10:07:43;;;;;;;56.00;15.13;;;;;;;-8.52;67.05;100157.31;4914018;29;20071;-60
2021/12/29 10:10:21;;;;;;;35.72;13.13;;;;;;;-8.47;67.96;100157.56;4916431;29;20050;-58
2021/12/29 10:12:48;;;;;;;39.58;13.52;;;;;;;-8.44;66.93;100157.16;4914072;29;20112;-59
2021/12/29 10:15:15;;;;;;;37.17;13.13;;;;;;;-8.37;67.37;100153.50;4915170;29;20452;-58
2021/12/29 10:17:42;;;;;;;39.95;14.45;;;;;;;-8.36;66.96;100143.50;4915137;29;20056;-61
2021/12/29 10:20:16;;;;;;;36.28;12.82;;;;;;;-8.31;67.63;100150.00;4915877;29;20054;-59
2021/12/29 10:22:54;;;;;;;42.38;12.82;;;;;;;-8.33;67.32;100148.50;4914139;29;20544;-60
2021/12/29 10:25:32;;;;;;;34.67;12.60;;;;;;;-8.36;67.59;100132.72;4916930;29;20064;-59
2021/12/29 10:28:00;;;;;;;33.13;11.70;;;;;;;-8.35;67.13;100123.63;4914411;29;20134;-57
2021/12/29 10:30:31;;;;;;;40.55;12.98;;;;;;;-8.36;67.56;100119.25;4914249;29;20115;-58
2021/12/29 10:33:08;;;;;;;;;;;;;;;-8.43;67.39;100121.91;4911612;29;20067;-58
2021/12/29 10:35:36;;;;;;;31.20;11.10;;;;;;;-8.55;67.71;100122.66;4910478;29;19927;-55
2021/12/29 10:38:30;;;;;;;42.70;11.95;;;;;;;-8.60;67.83;100125.94;4914625;29;20063;-59
2021/12/29 10:41:03;;;;;;;45.22;13.45;;;;;;;-8.59;67.80;100116.78;4909774;29;20142;-60
2021/12/29 10:43:30;;;;;;;47.95;13.73;;;;;;;-8.63;67.79;100114.69;4915539;29;20052;-57
2021/12/29 10:45:59;;;;;;;49.92;13.32;;;;;;;-8.71;67.74;100120.25;4913908;29;20492;-59
2021/12/29 10:48:28;;;;;;;52.75;18.45;;;;;;;-8.85;67.42;100111.22;4905836;29;20059;-60
2021/12/29 10:51:07;;;;;;;28.92;10.50;;;;;;;-8.96;67.71;100105.50;4915925;29;20142;-59
2021/12/29 10:53:37;;;;;;;35.60;12.50;;;;;;;-8.94;67.65;100100.78;4915731;29;20063;-59
2021/12/29 10:56:05;;;;;;;45.83;11.93;;;;;;;-8.93;67.54;100086.25;4915633;29;20529;-58
2021/12/29 10:58:35;;;;;;;50.67;15.35;;;;;;;-8.89;67.76;100098.34;4916193;29;20060;-59
2021/12/29 11:01:01;;;;;;;48.75;15.75;;;;;;;-9.01;68.62;100099.84;4915834;29;20071;-58
2021/12/29 11:03:31;;;;;;;44.42;12.77;;;;;;;-9.02;68.37;100098.19;4916410;29;20143;-59
2021/12/29 11:06:00;;;;;;;48.72;14.63;;;;;;;-9.04;67.82;100105.63;4915836;29;20097;-61
2021/12/29 11:08:44;;;;;;;38.55;11.27;;;;;;;-9.11;67.98;100088.59;4913043;29;20139;-61
2021/12/29 11:11:12;;;;;;;44.38;12.57;;;;;;;-9.09;68.62;100087.34;4915421;29;20055;-60
2021/12/29 11:13:41;;;;;;;46.25;12.05;;;;;;;-9.12;67.92;100082.34;4915755;29;20048;-60
2021/12/29 11:16:09;;;;;;;36.95;12.18;;;;;;;-9.15;68.53;100084.63;4915596;29;20090;-61
2021/12/29 11:18:56;;;;;;;35.70;10.95;;;;;;;-9.22;68.59;100078.31;4907105;29;20064;-60
2021/12/29 11:21:35;;;;;;;43.72;12.25;;;;;;;-9.24;69.01;100072.31;4913082;29;20069;-59
2021/12/29 11:24:15;;;;;;;38.35;10.35;;;;;;;-9.28;68.92;100071.00;4915605;29;20059;-60
2021/12/29 11:26:44;;;;;;;24.55;8.18;;;;;;;-9.33;68.59;100078.84;4912842;29;20057;-60